Time;durP1;ratioP1;P1;durP2;ratioP2;P2;SDS_P1;SDS_P2;PMS_P1;PMS_P2;Temp;Humidity;BMP_temperature;BMP_pressure;BME280_temperature;BME280_humidity;BME280_pressure;Samples;Min_cycle;Max_cycle;Signal;HPM_P1;HPM_P2
2024/01/23 00:02:26;;;;;;;10.13;2.17;;;7.20;85.70;;;;;;5006403;28;20833;-76
2024/01/23 00:04:54;;;;;;;11.55;2.28;;;7.20;85.70;;;;;;5006013;28;20212;-76
2024/01/23 00:07:22;;;;;;;6.57;1.87;;;7.20;85.60;;;;;;5003744;28;21413;-76
2024/01/23 00:09:52;;;;;;;11.40;3.40;;;7.20;85.60;;;;;;5006827;28;20445;-77
2024/01/23 00:12:20;;;;;;;9.02;2.20;;;7.10;85.70;;;;;;5005469;28;20449;-77
2024/01/23 00:14:48;;;;;;;7.88;2.63;;;7.10;85.70;;;;;;5010442;28;20206;-78
2024/01/23 00:17:16;;;;;;;8.90;2.57;;;7.10;85.70;;;;;;5008717;28;20803;-77
2024/01/23 00:19:53;;;;;;;11.07;3.17;;;7.10;85.70;;;;;;5018473;28;20480;-78
2024/01/23 00:22:21;;;;;;;16.20;4.13;;;7.10;85.80;;;;;;5009776;28;20550;-77
2024/01/23 00:24:52;;;;;;;11.30;2.58;;;7.20;85.90;;;;;;5009327;28;20289;-78
2024/01/23 00:27:20;;;;;;;12.53;2.80;;;7.20;85.90;;;;;;5005843;28;20284;-76
2024/01/23 00:29:48;;;;;;;11.43;2.90;;;7.20;85.90;;;;;;5005562;28;20832;-76
2024/01/23 00:32:16;;;;;;;14.30;3.23;;;7.20;85.90;;;;;;5004734;28;20232;-76
2024/01/23 00:34:44;;;;;;;13.33;3.07;;;7.20;85.90;;;;;;5019703;28;21129;-76
2024/01/23 00:37:12;;;;;;;6.15;2.45;;;7.20;86.00;;;;;;5007801;28;20448;-76
2024/01/23 00:39:40;;;;;;;10.20;3.07;;;7.30;85.90;;;;;;5005754;28;20719;-76
2024/01/23 00:42:09;;;;;;;8.73;2.93;;;7.30;85.90;;;;;;5006399;28;20468;-75
2024/01/23 00:44:39;;;;;;;15.75;3.05;;;7.30;85.90;;;;;;5005853;28;20456;-76
2024/01/23 00:47:07;;;;;;;21.97;4.10;;;7.30;85.80;;;;;;5004919;28;20542;-76
2024/01/23 00:49:35;;;;;;;16.40;3.20;;;7.30;85.80;;;;;;5007387;28;20453;-76
2024/01/23 00:52:04;;;;;;;13.60;3.20;;;7.30;85.80;;;;;;5003667;28;20972;-76
2024/01/23 00:54:32;;;;;;;13.93;2.93;;;7.30;85.80;;;;;;5003627;28;20946;-76
2024/01/23 00:57:00;;;;;;;15.63;3.25;;;7.30;85.80;;;;;;5003000;28;20833;-75
2024/01/23 00:59:29;;;;;;;14.60;3.70;;;7.30;85.70;;;;;;5004393;28;20563;-75
2024/01/23 01:01:57;;;;;;;12.68;4.15;;;7.30;85.70;;;;;;5004343;28;20798;-75
2024/01/23 01:04:25;;;;;;;17.10;3.50;;;7.40;85.70;;;;;;5009515;28;20213;-76
2024/01/23 01:06:53;;;;;;;13.63;3.50;;;7.40;85.70;;;;;;5005904;28;20209;-76
2024/01/23 01:09:21;;;;;;;11.77;2.97;;;7.40;85.70;;;;;;5007062;28;20221;-76
2024/01/23 01:11:49;;;;;;;14.40;3.13;;;7.40;85.60;;;;;;5007659;28;20236;-76
2024/01/23 01:14:17;;;;;;;18.37;3.00;;;7.40;85.60;;;;;;4999093;28;20551;-75
2024/01/23 01:16:47;;;;;;;10.13;2.83;;;7.40;85.50;;;;;;5000616;28;20460;-76
2024/01/23 01:19:15;;;;;;;13.93;3.30;;;7.40;85.50;;;;;;5019104;28;20533;-75
2024/01/23 01:21:43;;;;;;;14.10;2.73;;;7.40;85.40;;;;;;5005667;28;20546;-75
2024/01/23 01:24:11;;;;;;;10.43;2.40;;;7.40;85.30;;;;;;5003149;28;20453;-76
2024/01/23 01:26:39;;;;;;;8.23;2.90;;;7.40;85.30;;;;;;5003704;28;20457;-76
2024/01/23 01:29:07;;;;;;;12.73;3.00;;;7.40;85.20;;;;;;5003039;28;20471;-75
2024/01/23 01:31:35;;;;;;;12.35;3.70;;;7.40;85.20;;;;;;5001195;28;20239;-75
2024/01/23 01:34:04;;;;;;;14.30;2.83;;;7.40;85.20;;;;;;5006094;28;20595;-75
2024/01/23 01:36:33;;;;;;;9.93;2.30;;;7.40;85.00;;;;;;5002686;28;20460;-75
2024/01/23 01:39:02;;;;;;;16.10;3.00;;;7.40;84.90;;;;;;5004417;28;20468;-75
2024/01/23 01:41:30;;;;;;;12.25;2.90;;;7.50;84.90;;;;;;5004663;28;20473;-74
2024/01/23 01:43:58;;;;;;;19.87;3.20;;;7.50;84.80;;;;;;5000650;28;20208;-75
2024/01/23 01:46:26;;;;;;;15.53;3.33;;;7.40;84.60;;;;;;5001978;28;20754;-75
2024/01/23 01:48:56;;;;;;;18.20;3.07;;;7.40;84.60;;;;;;5001848;28;20454;-75
2024/01/23 01:51:28;;;;;;;9.83;2.90;;;7.40;84.60;;;;;;5001266;28;20441;-75
2024/01/23 01:53:57;;;;;;;11.02;2.88;;;7.40;84.50;;;;;;5003681;28;21226;-75
2024/01/23 01:56:28;;;;;;;11.80;2.77;;;7.40;84.50;;;;;;5003517;28;20216;-74
2024/01/23 01:58:58;;;;;;;15.70;3.00;;;7.40;84.40;;;;;;5001120;28;20461;-75
2024/01/23 02:01:27;;;;;;;7.53;2.30;;;7.40;84.30;;;;;;5002275;28;20233;-75
2024/01/23 02:03:56;;;;;;;22.00;2.67;;;7.40;84.30;;;;;;5004872;28;20457;-75
2024/01/23 02:06:27;;;;;;;8.07;2.53;;;7.40;84.30;;;;;;5004638;28;20444;-75
2024/01/23 02:08:56;;;;;;;12.10;2.83;;;7.40;84.30;;;;;;5001716;28;20218;-75
2024/01/23 02:11:25;;;;;;;9.68;2.33;;;7.40;84.30;;;;;;5004022;28;20460;-75
2024/01/23 02:13:54;;;;;;;11.00;2.50;;;7.40;84.30;;;;;;5000451;28;20217;-75
2024/01/23 02:16:22;;;;;;;11.23;2.43;;;7.40;84.20;;;;;;5001605;28;20548;-75
2024/01/23 02:18:50;;;;;;;9.83;2.83;;;7.40;84.20;;;;;;5007089;28;20764;-75
2024/01/23 02:21:19;;;;;;;9.20;3.10;;;7.40;84.10;;;;;;5004735;28;20543;-75
2024/01/23 02:23:48;;;;;;;11.63;2.40;;;7.40;84.00;;;;;;5002965;28;20548;-75
2024/01/23 02:26:16;;;;;;;17.83;3.00;;;7.40;83.90;;;;;;5007645;28;20454;-75
2024/01/23 02:28:44;;;;;;;12.90;3.17;;;7.40;83.80;;;;;;5003741;28;20550;-75
2024/01/23 02:31:12;;;;;;;10.27;2.57;;;7.40;83.70;;;;;;5002532;28;20507;-75
2024/01/23 02:33:40;;;;;;;11.77;2.30;;;7.40;83.70;;;;;;5003551;28;20464;-75
2024/01/23 02:36:09;;;;;;;10.77;2.57;;;7.40;83.60;;;;;;5003287;28;20909;-76
2024/01/23 02:38:39;;;;;;;11.63;2.67;;;7.40;83.50;;;;;;5003683;28;20453;-75
2024/01/23 02:41:08;;;;;;;10.37;2.27;;;7.40;83.40;;;;;;5006853;28;20495;-75
2024/01/23 02:43:37;;;;;;;12.43;2.77;;;7.40;83.40;;;;;;5003139;28;20821;-74
2024/01/23 02:46:06;;;;;;;19.50;3.03;;;7.40;83.30;;;;;;5000899;28;21012;-74
2024/01/23 02:48:34;;;;;;;9.00;2.60;;;7.40;83.20;;;;;;5002304;28;21173;-76
2024/01/23 02:51:02;;;;;;;10.83;2.47;;;7.40;83.20;;;;;;5004826;28;20787;-75
2024/01/23 02:53:30;;;;;;;9.33;2.00;;;7.40;83.00;;;;;;4998202;28;20509;-75
2024/01/23 02:55:58;;;;;;;10.70;2.60;;;7.40;83.00;;;;;;5003258;28;20460;-75
2024/01/23 02:58:27;;;;;;;10.63;2.20;;;7.30;82.90;;;;;;5002549;28;20460;-75
2024/01/23 03:00:55;;;;;;;16.40;2.33;;;7.30;82.90;;;;;;5000621;28;20808;-75
2024/01/23 03:03:23;;;;;;;9.77;2.47;;;7.30;82.80;;;;;;4999806;28;20457;-74
2024/01/23 03:05:51;;;;;;;12.50;2.30;;;7.30;82.70;;;;;;5002102;28;20463;-74
2024/01/23 03:08:22;;;;;;;17.17;2.40;;;7.30;82.70;;;;;;5002733;28;20454;-75
2024/01/23 03:10:50;;;;;;;9.77;2.20;;;7.30;82.60;;;;;;5003721;28;20464;-75
2024/01/23 03:13:18;;;;;;;14.90;2.60;;;7.20;82.50;;;;;;5004640;28;20878;-75
2024/01/23 03:15:49;;;;;;;16.73;2.58;;;7.20;82.50;;;;;;5005986;28;20448;-74
2024/01/23 03:18:17;;;;;;;11.67;2.40;;;7.20;82.50;;;;;;5007473;28;20593;-74
2024/01/23 03:20:47;;;;;;;7.43;2.20;;;7.20;82.50;;;;;;5004531;28;20471;-74
2024/01/23 03:23:15;;;;;;;17.97;3.37;;;7.20;82.40;;;;;;5009050;28;20471;-74
2024/01/23 03:25:43;;;;;;;13.73;2.67;;;7.10;82.30;;;;;;5005456;28;21254;-75
2024/01/23 03:28:11;;;;;;;15.40;2.53;;;7.20;82.30;;;;;;5005334;28;20452;-74
2024/01/23 03:30:39;;;;;;;16.33;3.37;;;7.10;82.20;;;;;;5003141;28;20464;-75
2024/01/23 03:33:08;;;;;;;11.83;2.40;;;7.10;82.20;;;;;;5009752;28;21018;-74
2024/01/23 03:35:36;;;;;;;7.97;2.22;;;7.10;82.20;;;;;;5004344;28;20461;-75
2024/01/23 03:38:05;;;;;;;18.37;2.57;;;7.10;82.20;;;;;;5005119;28;20321;-74
2024/01/23 03:40:33;;;;;;;13.47;3.10;;;7.10;82.30;;;;;;5006546;28;20853;-74
2024/01/23 03:43:01;;;;;;;18.08;4.57;;;7.10;82.20;;;;;;5005548;28;20567;-74
2024/01/23 03:45:29;;;;;;;13.33;2.80;;;7.20;82.20;;;;;;5008780;28;20285;-74
2024/01/23 03:47:57;;;;;;;8.90;2.35;;;7.20;82.20;;;;;;5006989;28;20542;-74
2024/01/23 03:50:27;;;;;;;14.53;2.20;;;7.20;82.20;;;;;;5010136;28;20329;-74
2024/01/23 03:52:55;;;;;;;9.00;2.55;;;7.20;82.20;;;;;;5022395;28;20456;-76
2024/01/23 03:55:23;;;;;;;11.17;2.40;;;7.20;82.10;;;;;;5006422;28;20332;-76
2024/01/23 03:57:51;;;;;;;7.93;2.07;;;7.30;82.10;;;;;;5009224;28;20519;-76
2024/01/23 04:00:21;;;;;;;13.88;2.35;;;7.30;82.00;;;;;;5000455;28;21434;-76
2024/01/23 04:02:49;;;;;;;14.67;3.00;;;7.30;82.00;;;;;;5005847;28;20232;-76
2024/01/23 04:05:17;;;;;;;12.20;2.47;;;7.30;82.00;;;;;;5003882;28;20450;-76
2024/01/23 04:07:48;;;;;;;11.73;2.00;;;7.30;82.00;;;;;;5003535;28;20808;-75
2024/01/23 04:10:16;;;;;;;7.60;1.80;;;7.30;81.90;;;;;;5021707;28;20515;-76
2024/01/23 04:12:44;;;;;;;8.10;2.10;;;7.30;81.80;;;;;;5024323;28;20469;-76
2024/01/23 04:15:13;;;;;;;9.30;1.90;;;7.30;81.80;;;;;;5005520;28;20933;-77
2024/01/23 04:17:42;;;;;;;7.93;1.70;;;7.30;81.50;;;;;;5009484;28;20221;-77
2024/01/23 04:20:10;;;;;;;9.27;2.10;;;7.30;81.60;;;;;;5007212;28;20539;-77
2024/01/23 04:22:38;;;;;;;11.43;2.10;;;7.30;81.60;;;;;;5010472;28;21020;-76
2024/01/23 04:25:11;;;;;;;6.43;1.80;;;7.30;81.50;;;;;;5005549;28;20524;-77
2024/01/23 04:27:39;;;;;;;12.00;1.90;;;7.30;81.40;;;;;;5006636;28;20225;-76
2024/01/23 04:30:08;;;;;;;5.50;1.33;;;7.30;81.40;;;;;;5003997;28;20798;-77
2024/01/23 04:32:36;;;;;;;8.87;2.13;;;7.20;81.40;;;;;;5008544;28;20487;-76
2024/01/23 04:35:05;;;;;;;10.38;1.92;;;7.20;81.30;;;;;;5005845;28;20492;-76
2024/01/23 04:37:33;;;;;;;8.13;1.90;;;7.20;81.40;;;;;;5007959;28;20540;-77
2024/01/23 04:40:03;;;;;;;10.63;1.87;;;7.20;81.20;;;;;;5002395;28;20639;-77
2024/01/23 04:42:32;;;;;;;6.47;1.65;;;7.30;81.10;;;;;;5006533;28;20499;-76
2024/01/23 04:45:01;;;;;;;11.33;2.00;;;7.20;81.10;;;;;;5004911;28;20294;-77
2024/01/23 04:47:29;;;;;;;7.57;1.95;;;7.20;81.10;;;;;;5003955;28;20499;-76
2024/01/23 04:49:57;;;;;;;9.67;1.60;;;7.20;81.10;;;;;;5008232;28;20198;-76
2024/01/23 04:52:26;;;;;;;8.07;1.60;;;7.20;81.10;;;;;;5005464;28;20869;-76
2024/01/23 04:54:54;;;;;;;7.83;1.70;;;7.20;81.10;;;;;;5011331;28;20457;-76
2024/01/23 04:57:22;;;;;;;8.55;1.88;;;7.10;81.00;;;;;;5001947;28;20807;-76
2024/01/23 04:59:51;;;;;;;7.47;1.60;;;7.10;81.10;;;;;;5006754;28;20285;-76
2024/01/23 05:02:19;;;;;;;12.68;2.08;;;7.10;81.10;;;;;;5021901;28;20848;-76
2024/01/23 05:04:47;;;;;;;6.15;1.33;;;7.10;81.20;;;;;;5004991;28;20224;-76
2024/01/23 05:07:15;;;;;;;8.82;2.13;;;7.10;81.20;;;;;;5019413;28;22459;-76
2024/01/23 05:09:43;;;;;;;4.70;1.30;;;7.10;81.20;;;;;;5006032;28;20205;-76
2024/01/23 05:12:11;;;;;;;5.20;1.60;;;7.10;81.20;;;;;;5006132;28;20468;-76
2024/01/23 05:14:39;;;;;;;4.95;1.50;;;7.10;81.10;;;;;;5003590;28;20233;-76
2024/01/23 05:17:08;;;;;;;4.90;1.45;;;7.10;81.00;;;;;;5006367;28;20559;-75
2024/01/23 05:19:37;;;;;;;7.47;1.20;;;7.00;81.00;;;;;;5006327;28;20209;-76
2024/01/23 05:22:05;;;;;;;7.30;1.50;;;7.00;81.10;;;;;;5013084;28;20210;-78
2024/01/23 05:24:33;;;;;;;5.82;1.45;;;7.00;81.20;;;;;;5013715;28;20838;-78
2024/01/23 05:27:02;;;;;;;8.33;2.50;;;7.00;81.20;;;;;;5010970;28;20202;-78
2024/01/23 05:29:31;;;;;;;6.53;1.85;;;6.90;81.30;;;;;;5031585;28;20467;-78
2024/01/23 05:31:58;;;;;;;10.63;2.72;;;6.90;81.40;;;;;;5029760;28;20725;-78
2024/01/23 05:34:28;;;;;;;9.38;2.08;;;6.90;81.50;;;;;;5011807;28;20237;-78
2024/01/23 05:36:59;;;;;;;10.52;2.55;;;6.90;81.50;;;;;;5022548;28;20603;-78
2024/01/23 05:39:29;;;;;;;19.35;2.85;;;6.90;81.50;;;;;;5010416;28;20216;-76
2024/01/23 05:41:58;;;;;;;11.90;2.50;;;6.90;81.60;;;;;;5003265;28;20296;-76
2024/01/23 05:44:26;;;;;;;8.30;2.22;;;7.00;81.60;;;;;;5002138;28;20557;-76
2024/01/23 05:46:54;;;;;;;6.63;2.00;;;7.00;81.70;;;;;;5004518;28;20209;-75
2024/01/23 05:49:22;;;;;;;8.25;2.15;;;7.00;81.70;;;;;;5003365;28;20212;-76
2024/01/23 05:51:52;;;;;;;14.63;2.57;;;7.00;81.70;;;;;;5002646;28;20224;-76
2024/01/23 05:54:20;;;;;;;10.80;3.17;;;7.00;81.80;;;;;;5006530;28;21033;-76
2024/01/23 05:56:48;;;;;;;12.83;2.60;;;7.00;81.80;;;;;;5001488;28;20946;-76
2024/01/23 05:59:16;;;;;;;11.13;2.60;;;7.00;81.80;;;;;;5001544;28;20976;-76
2024/01/23 06:01:45;;;;;;;11.20;2.23;;;7.00;81.80;;;;;;5000660;28;20723;-76
2024/01/23 06:04:13;;;;;;;9.13;2.22;;;7.00;81.90;;;;;;5001406;28;20559;-76
2024/01/23 06:06:42;;;;;;;9.77;2.45;;;7.00;81.90;;;;;;5000894;28;20213;-76
2024/01/23 06:09:12;;;;;;;11.60;2.37;;;7.00;82.00;;;;;;5005599;28;20206;-76
2024/01/23 06:11:40;;;;;;;11.03;2.40;;;7.00;82.00;;;;;;5003460;28;20937;-76
2024/01/23 06:14:08;;;;;;;25.87;3.20;;;7.00;82.10;;;;;;5004613;28;20448;-76
2024/01/23 06:16:37;;;;;;;19.23;3.17;;;7.00;82.10;;;;;;5005314;28;20468;-76
2024/01/23 06:19:08;;;;;;;12.60;3.03;;;7.00;82.10;;;;;;5000822;28;20206;-75
2024/01/23 06:21:36;;;;;;;14.10;3.30;;;7.00;82.10;;;;;;4998388;28;20468;-76
2024/01/23 06:24:05;;;;;;;16.20;2.45;;;7.00;82.10;;;;;;5002976;28;20538;-76
2024/01/23 06:26:34;;;;;;;14.30;3.23;;;7.00;82.20;;;;;;5018810;28;20213;-76
2024/01/23 06:29:04;;;;;;;11.90;2.70;;;7.00;82.20;;;;;;5002880;28;20568;-76
2024/01/23 06:31:33;;;;;;;15.13;3.20;;;7.00;82.10;;;;;;5001641;28;20522;-76
2024/01/23 06:34:01;;;;;;;16.30;3.50;;;7.00;82.10;;;;;;5000242;28;20464;-75
2024/01/23 06:36:31;;;;;;;19.58;3.50;;;7.00;82.20;;;;;;5000488;28;20463;-76
2024/01/23 06:38:59;;;;;;;23.63;3.60;;;7.00;82.20;;;;;;5003732;28;20221;-76
2024/01/23 06:41:27;;;;;;;11.35;3.13;;;7.00;82.20;;;;;;5001745;28;20206;-76
2024/01/23 06:43:56;;;;;;;13.20;3.60;;;7.00;82.20;;;;;;5006934;28;20238;-76
2024/01/23 06:46:24;;;;;;;13.93;3.40;;;7.00;82.30;;;;;;5002575;28;20628;-76
2024/01/23 06:48:52;;;;;;;12.63;2.80;;;7.00;82.30;;;;;;5004436;28;21001;-76
2024/01/23 06:51:21;;;;;;;18.33;3.63;;;7.00;82.30;;;;;;5014017;28;20840;-75
2024/01/23 06:53:49;;;;;;;12.60;3.33;;;7.00;82.30;;;;;;5002776;28;20535;-76
2024/01/23 06:56:17;;;;;;;16.70;3.67;;;7.00;82.40;;;;;;5003773;28;20580;-77
2024/01/23 06:58:45;;;;;;;16.97;3.30;;;7.00;82.40;;;;;;4997090;28;20481;-76
2024/01/23 07:01:14;;;;;;;16.42;3.65;;;7.00;82.40;;;;;;5000790;28;20483;-76
2024/01/23 07:03:42;;;;;;;15.02;3.70;;;7.00;82.40;;;;;;5006842;28;20225;-76
2024/01/23 07:06:10;;;;;;;23.08;4.75;;;7.00;82.40;;;;;;4998275;28;20308;-76
2024/01/23 07:08:38;;;;;;;18.83;4.22;;;7.00;82.30;;;;;;5001735;28;20296;-76
2024/01/23 07:11:06;;;;;;;18.87;3.90;;;6.90;82.30;;;;;;5009303;28;20291;-76
2024/01/23 07:13:34;;;;;;;19.65;3.80;;;6.90;82.30;;;;;;5016104;28;20465;-76
2024/01/23 07:16:02;;;;;;;19.70;4.22;;;6.90;82.30;;;;;;5003856;28;20630;-76
2024/01/23 07:18:31;;;;;;;19.30;3.33;;;6.90;82.40;;;;;;5002037;28;20212;-76
2024/01/23 07:21:00;;;;;;;16.80;3.30;;;6.80;82.40;;;;;;5002488;28;20201;-76
2024/01/23 07:23:28;;;;;;;13.52;2.97;;;6.90;82.40;;;;;;4999188;28;20210;-76
2024/01/23 07:25:57;;;;;;;15.98;3.63;;;6.90;82.40;;;;;;4997410;28;20202;-76
2024/01/23 07:28:25;;;;;;;17.00;4.05;;;6.90;82.40;;;;;;5002994;28;20194;-76
2024/01/23 07:31:13;;;;;;;15.32;3.40;;;6.90;82.60;;;;;;4996206;28;20222;-75
2024/01/23 07:33:43;;;;;;;21.88;4.30;;;6.80;82.60;;;;;;4994407;28;20882;-75
2024/01/23 07:36:11;;;;;;;15.73;3.23;;;6.80;82.60;;;;;;5002192;28;20612;-76
2024/01/23 07:38:39;;;;;;;20.83;4.47;;;6.80;82.70;;;;;;5001597;28;20454;-76
2024/01/23 07:41:07;;;;;;;13.07;2.97;;;6.90;82.70;;;;;;5001899;28;20657;-76
2024/01/23 07:43:35;;;;;;;14.85;3.10;;;6.80;82.70;;;;;;5000510;28;20329;-76
2024/01/23 07:46:03;;;;;;;10.50;2.93;;;6.90;82.80;;;;;;5002688;28;20205;-76
2024/01/23 07:48:31;;;;;;;16.10;4.73;;;6.90;82.70;;;;;;5003407;28;20469;-75
2024/01/23 07:51:01;;;;;;;17.67;3.33;;;6.90;82.70;;;;;;5000919;28;20448;-76
2024/01/23 07:53:29;;;;;;;13.37;3.27;;;6.90;82.70;;;;;;4997371;28;20764;-76
2024/01/23 07:55:57;;;;;;;22.98;3.90;;;6.90;82.70;;;;;;4998484;28;20444;-76
2024/01/23 07:58:25;;;;;;;19.70;4.78;;;6.90;82.70;;;;;;5014167;28;20204;-76
2024/01/23 08:00:53;;;;;;;18.88;3.60;;;6.90;82.70;;;;;;5005030;28;20241;-76
2024/01/23 08:03:22;;;;;;;17.63;3.50;;;6.90;82.70;;;;;;5021022;28;20229;-76
2024/01/23 08:05:50;;;;;;;16.55;3.88;;;6.90;82.70;;;;;;5001153;28;20487;-76
2024/01/23 08:08:22;;;;;;;17.23;3.55;;;6.90;82.80;;;;;;5004879;28;20203;-75
2024/01/23 08:10:51;;;;;;;18.57;2.90;;;7.00;82.80;;;;;;5006098;28;20201;-76
2024/01/23 08:13:20;;;;;;;15.47;3.90;;;7.00;82.70;;;;;;5003874;28;20939;-76
2024/01/23 08:15:48;;;;;;;20.48;3.53;;;7.00;82.60;;;;;;5006639;28;20954;-75
2024/01/23 08:18:18;;;;;;;16.43;3.03;;;7.00;82.60;;;;;;5018592;28;20218;-76
2024/01/23 08:20:46;;;;;;;12.38;3.60;;;7.00;82.50;;;;;;5007582;28;20543;-75
2024/01/23 08:23:14;;;;;;;11.35;3.33;;;7.00;82.70;;;;;;5003156;28;20215;-76
2024/01/23 08:25:45;;;;;;;13.10;3.17;;;7.00;82.60;;;;;;5003561;28;20221;-76
2024/01/23 08:28:14;;;;;;;19.65;4.57;;;7.00;82.60;;;;;;5006850;28;20216;-76
2024/01/23 08:30:42;;;;;;;20.45;3.53;;;7.00;82.60;;;;;;5001003;28;20251;-76
2024/01/23 08:33:14;;;;;;;10.93;3.40;;;7.10;82.40;;;;;;5004601;28;20218;-76
2024/01/23 08:35:45;;;;;;;20.20;3.30;;;7.10;82.40;;;;;;5005673;28;20534;-76
2024/01/23 08:38:13;;;;;;;15.75;3.30;;;7.10;82.30;;;;;;5000935;28;20210;-76
2024/01/23 08:40:45;;;;;;;9.00;3.30;;;7.10;82.30;;;;;;5007085;28;20209;-76
2024/01/23 08:43:14;;;;;;;18.40;4.27;;;7.00;82.30;;;;;;4999181;28;20461;-76
2024/01/23 08:45:42;;;;;;;16.10;3.20;;;7.00;82.30;;;;;;5002791;28;20580;-76
2024/01/23 08:48:11;;;;;;;21.58;4.18;;;7.00;82.20;;;;;;5020076;28;20657;-76
2024/01/23 08:50:40;;;;;;;10.43;3.17;;;7.00;82.20;;;;;;5004857;28;20537;-76
2024/01/23 08:53:09;;;;;;;21.65;3.70;;;7.00;82.20;;;;;;5004335;28;20457;-76
2024/01/23 08:55:37;;;;;;;19.47;4.43;;;7.00;82.10;;;;;;5006714;28;20281;-76
2024/01/23 08:58:05;;;;;;;12.27;3.50;;;7.00;82.20;;;;;;5005799;28;20905;-75
2024/01/23 09:00:35;;;;;;;17.17;3.30;;;7.00;82.10;;;;;;5002658;28;21064;-76
2024/01/23 09:03:04;;;;;;;15.40;3.27;;;7.00;82.10;;;;;;5005732;28;20197;-76
2024/01/23 09:05:32;;;;;;;15.20;2.50;;;7.00;82.00;;;;;;5004943;28;20498;-76
2024/01/23 09:08:06;;;;;;;21.63;3.93;;;7.00;82.00;;;;;;5005265;28;20221;-76
2024/01/23 09:10:34;;;;;;;12.30;2.95;;;7.00;82.00;;;;;;5001100;28;20466;-76
2024/01/23 09:13:03;;;;;;;18.30;4.15;;;7.00;82.00;;;;;;5017650;28;20206;-76
2024/01/23 09:15:31;;;;;;;17.60;3.90;;;7.00;81.90;;;;;;5008191;28;20669;-76
2024/01/23 09:18:01;;;;;;;23.50;4.03;;;7.00;81.90;;;;;;5005670;28;20811;-76
2024/01/23 09:20:30;;;;;;;14.13;3.47;;;7.00;81.90;;;;;;5002624;28;20209;-76
2024/01/23 09:22:58;;;;;;;19.10;4.17;;;7.10;81.80;;;;;;5001938;28;20560;-76
2024/01/23 09:25:27;;;;;;;18.23;3.20;;;7.10;81.80;;;;;;5004537;28;20547;-76
2024/01/23 09:27:55;;;;;;;13.35;3.30;;;7.10;81.70;;;;;;5003019;28;20465;-76
2024/01/23 09:30:24;;;;;;;19.07;3.90;;;7.10;81.60;;;;;;5000999;28;20205;-76
2024/01/23 09:32:57;;;;;;;16.08;3.30;;;7.10;81.60;;;;;;5002788;28;20855;-76
2024/01/23 09:35:28;;;;;;;18.33;3.50;;;7.20;81.60;;;;;;5003761;28;20276;-75
2024/01/23 09:37:56;;;;;;;14.93;3.10;;;7.20;81.50;;;;;;4999005;28;20297;-76
2024/01/23 09:40:24;;;;;;;19.20;3.90;;;7.20;81.50;;;;;;5000478;28;20448;-76
2024/01/23 09:42:57;;;;;;;14.23;3.30;;;7.20;81.50;;;;;;5006760;28;20552;-76
2024/01/23 09:45:28;;;;;;;16.33;3.28;;;7.30;81.40;;;;;;5006081;28;20793;-76
2024/01/23 09:47:56;;;;;;;14.37;2.70;;;7.30;81.30;;;;;;5000490;28;20210;-76
2024/01/23 09:50:26;;;;;;;13.43;3.73;;;7.30;81.20;;;;;;5019586;28;20567;-76
2024/01/23 09:52:59;;;;;;;15.40;3.30;;;7.30;81.10;;;;;;5004136;28;20453;-76
2024/01/23 09:55:28;;;;;;;23.57;3.37;;;7.40;81.10;;;;;;5020969;28;20453;-76
2024/01/23 09:57:57;;;;;;;21.63;3.20;;;7.40;81.00;;;;;;5004875;28;20484;-76
2024/01/23 10:00:25;;;;;;;10.95;3.22;;;7.50;80.90;;;;;;4998781;28;20461;-76
2024/01/23 10:02:54;;;;;;;20.07;2.93;;;7.50;80.90;;;;;;5002339;28;20288;-76
2024/01/23 10:05:23;;;;;;;17.90;3.67;;;7.50;80.90;;;;;;5003730;28;20488;-76
2024/01/23 10:07:54;;;;;;;20.70;2.93;;;7.60;80.90;;;;;;5001064;28;20457;-76
2024/01/23 10:10:25;;;;;;;11.17;2.93;;;7.60;80.90;;;;;;5003504;28;20456;-75
2024/01/23 10:12:53;;;;;;;12.80;2.87;;;7.60;80.70;;;;;;5003111;28;20828;-76
2024/01/23 10:15:22;;;;;;;19.50;3.50;;;7.60;80.70;;;;;;5004955;28;20470;-76
2024/01/23 10:17:51;;;;;;;11.67;2.87;;;7.60;80.70;;;;;;5012020;28;20449;-76
2024/01/23 10:20:20;;;;;;;12.53;3.40;;;7.70;80.60;;;;;;5001260;28;20778;-76
2024/01/23 10:22:49;;;;;;;14.60;2.97;;;7.70;80.50;;;;;;5006743;28;20457;-76
2024/01/23 10:25:20;;;;;;;16.15;3.20;;;7.70;80.40;;;;;;5006073;28;21083;-76
2024/01/23 10:27:53;;;;;;;12.90;3.23;;;7.70;80.40;;;;;;5000887;28;20663;-76
2024/01/23 10:30:21;;;;;;;23.25;4.43;;;7.80;80.10;;;;;;5001499;28;20531;-76
2024/01/23 10:32:49;;;;;;;16.23;3.75;;;7.80;80.00;;;;;;5005391;28;20323;-76
2024/01/23 10:35:17;;;;;;;19.27;3.40;;;7.80;79.90;;;;;;5011086;28;20194;-76
2024/01/23 10:37:46;;;;;;;15.27;4.07;;;7.80;79.80;;;;;;5000956;28;20982;-76
2024/01/23 10:40:15;;;;;;;12.18;3.38;;;7.80;79.60;;;;;;4999499;28;20459;-75
2024/01/23 10:42:44;;;;;;;14.33;2.90;;;7.80;79.70;;;;;;5005648;28;20584;-76
2024/01/23 10:45:16;;;;;;;14.33;2.53;;;7.80;79.50;;;;;;5003359;28;20530;-76
2024/01/23 10:47:46;;;;;;;10.33;2.57;;;7.80;79.50;;;;;;5006285;28;21229;-75
2024/01/23 10:50:15;;;;;;;12.27;3.17;;;7.80;79.30;;;;;;4997940;28;20493;-75
2024/01/23 10:52:47;;;;;;;19.90;3.73;;;7.80;79.30;;;;;;5001380;28;20468;-76
2024/01/23 10:55:18;;;;;;;14.20;3.20;;;7.90;79.30;;;;;;5002538;28;20953;-76
2024/01/23 10:57:47;;;;;;;13.67;3.33;;;7.90;79.10;;;;;;5002212;28;20496;-75
2024/01/23 11:00:20;;;;;;;13.10;3.57;;;7.90;79.10;;;;;;4999156;28;21309;-76
2024/01/23 11:02:53;;;;;;;20.47;3.23;;;7.90;79.00;;;;;;4999385;28;21374;-77
2024/01/23 11:05:28;;;;;;;24.17;4.73;;;7.90;79.00;;;;;;5001863;28;20842;-76
2024/01/23 11:08:01;;;;;;;17.10;2.90;;;7.90;78.80;;;;;;5011944;28;20479;-76
2024/01/23 11:10:37;;;;;;;15.60;3.43;;;7.90;78.70;;;;;;5000046;28;20813;-76
2024/01/23 11:13:11;;;;;;;16.70;3.50;;;7.90;78.70;;;;;;5012205;28;20462;-76
2024/01/23 11:15:41;;;;;;;16.67;3.47;;;7.90;78.80;;;;;;5004952;28;20460;-76
2024/01/23 11:18:27;;;;;;;13.77;3.20;;;7.90;78.70;;;;;;5002398;28;20560;-76
2024/01/23 11:21:15;;;;;;;13.60;2.93;;;8.00;78.70;;;;;;5001523;28;20519;-76
2024/01/23 11:23:46;;;;;;;18.23;3.23;;;8.00;78.60;;;;;;5002648;28;20456;-76
2024/01/23 11:26:19;;;;;;;15.47;3.33;;;8.00;78.60;;;;;;5001755;28;20965;-76
2024/01/23 11:28:49;;;;;;;16.83;3.73;;;8.10;78.60;;;;;;5003015;28;21086;-76
2024/01/23 11:31:20;;;;;;;17.30;3.40;;;8.10;78.50;;;;;;5002083;28;20465;-75
2024/01/23 11:33:51;;;;;;;14.40;3.00;;;8.10;78.30;;;;;;5002666;28;20933;-76
2024/01/23 11:36:23;;;;;;;20.30;3.37;;;8.10;78.30;;;;;;5006098;28;20488;-76
2024/01/23 11:38:53;;;;;;;11.80;2.70;;;8.20;78.20;;;;;;5007567;28;20457;-75
2024/01/23 11:41:23;;;;;;;12.53;2.47;;;8.20;78.00;;;;;;5023334;28;20897;-76
2024/01/23 11:43:53;;;;;;;12.47;2.50;;;8.20;78.00;;;;;;5010660;28;20539;-77
2024/01/23 11:46:25;;;;;;;12.33;2.80;;;8.30;78.00;;;;;;5002580;28;20480;-76
2024/01/23 11:48:54;;;;;;;16.13;2.67;;;8.30;77.90;;;;;;5003351;28;20514;-76
2024/01/23 11:51:24;;;;;;;13.20;2.40;;;8.40;77.90;;;;;;5003581;28;20940;-76
2024/01/23 11:53:57;;;;;;;11.20;2.60;;;8.40;77.80;;;;;;5004524;28;20490;-76
2024/01/23 11:56:27;;;;;;;11.70;2.73;;;8.40;77.70;;;;;;5005181;28;20800;-76
2024/01/23 11:58:58;;;;;;;10.13;2.80;;;8.40;77.40;;;;;;5015970;28;21143;-76
2024/01/23 12:01:30;;;;;;;8.20;2.63;;;8.50;77.20;;;;;;5005145;28;20803;-76
2024/01/23 12:03:58;;;;;;;10.27;3.33;;;8.40;77.20;;;;;;5002622;28;20508;-76
2024/01/23 12:06:26;;;;;;;13.20;3.20;;;8.40;77.00;;;;;;5004448;28;20471;-76
2024/01/23 12:08:54;;;;;;;17.07;3.30;;;8.40;77.10;;;;;;5003573;28;20467;-76
2024/01/23 12:11:23;;;;;;;13.47;3.93;;;8.40;76.90;;;;;;5003912;28;20825;-76
2024/01/23 12:13:51;;;;;;;15.67;2.47;;;8.40;76.80;;;;;;5003864;28;20469;-76
2024/01/23 12:16:20;;;;;;;15.47;3.37;;;8.40;76.80;;;;;;5002194;28;20503;-76
2024/01/23 12:18:57;;;;;;;12.90;3.43;;;8.40;76.70;;;;;;5003446;28;20460;-75
2024/01/23 12:21:26;;;;;;;13.03;2.90;;;8.40;76.70;;;;;;5006012;28;20465;-75
2024/01/23 12:23:56;;;;;;;11.83;3.03;;;8.40;76.60;;;;;;5010168;28;20920;-76
2024/01/23 12:26:42;;;;;;;18.60;3.33;;;8.40;76.70;;;;;;5009082;28;20468;-76
2024/01/23 12:29:10;;;;;;;12.53;2.80;;;8.40;76.60;;;;;;5003494;28;20785;-76
2024/01/23 12:31:38;;;;;;;13.60;3.23;;;8.40;76.40;;;;;;5009656;28;21055;-76
2024/01/23 12:34:09;;;;;;;19.30;3.70;;;8.40;76.30;;;;;;5001185;28;20970;-76
2024/01/23 12:36:38;;;;;;;18.20;3.00;;;8.30;76.40;;;;;;5005182;28;20460;-76
2024/01/23 12:39:06;;;;;;;19.03;3.10;;;8.30;76.40;;;;;;5009825;28;20456;-76
2024/01/23 12:41:35;;;;;;;13.13;2.80;;;8.30;76.30;;;;;;5006840;28;20472;-76
2024/01/23 12:44:03;;;;;;;13.40;2.80;;;8.30;76.30;;;;;;5006246;28;20761;-76
2024/01/23 12:46:31;;;;;;;18.40;4.23;;;8.30;76.30;;;;;;5010692;28;20476;-75
2024/01/23 12:49:06;;;;;;;12.23;3.20;;;8.30;76.40;;;;;;5005943;28;20547;-76
2024/01/23 12:51:35;;;;;;;17.73;3.83;;;8.40;76.30;;;;;;5006847;28;20473;-76
2024/01/23 12:54:04;;;;;;;17.47;3.33;;;8.40;76.20;;;;;;5004373;28;20456;-76
2024/01/23 12:56:32;;;;;;;12.90;3.90;;;8.40;76.10;;;;;;5005107;28;20440;-75
2024/01/23 12:59:00;;;;;;;13.17;3.23;;;8.40;76.10;;;;;;5018413;28;20469;-76